Time;durP1;ratioP1;P1;durP2;ratioP2;P2;SDS_P1;SDS_P2;PMS_P1;PMS_P2;Temp;Humidity;BMP_temperature;BMP_pressure;BME280_temperature;BME280_humidity;BME280_pressure;Samples;Min_cycle;Max_cycle;Signal;HPM_P1;HPM_P2
2021/07/04 00:00:51;;;;;;;9.80;7.72;;;;;;;;;;5050406;28;20042;-81
2021/07/04 00:03:18;;;;;;;10.05;8.15;;;;;;;;;;5051160;28;20068;-82
2021/07/04 00:05:46;;;;;;;9.65;7.60;;;;;;;;;;5050953;28;20045;-81
2021/07/04 00:08:15;;;;;;;10.63;8.65;;;;;;;;;;5050920;28;20096;-82
2021/07/04 00:10:44;;;;;;;8.70;7.53;;;;;;;;;;5049367;28;20053;-81
2021/07/04 00:13:11;;;;;;;9.10;7.18;;;;;;;;;;5050581;28;20060;-81
2021/07/04 00:15:40;;;;;;;9.27;7.50;;;;;;;;;;5050701;28;20076;-81
2021/07/04 00:18:09;;;;;;;9.55;7.38;;;;;;;;;;5050862;28;20052;-81
2021/07/04 00:20:37;;;;;;;9.40;7.43;;;;;;;;;;5050914;28;20045;-80
2021/07/04 00:23:04;;;;;;;9.75;7.05;;;;;;;;;;5050924;28;20045;-81
2021/07/04 00:25:31;;;;;;;9.93;7.40;;;;;;;;;;5051460;28;20076;-81
2021/07/04 00:27:58;;;;;;;8.98;7.25;;;;;;;;;;5050855;28;20049;-81
2021/07/04 00:30:26;;;;;;;9.02;6.60;;;;;;;;;;5050879;28;20045;-81
2021/07/04 00:32:53;;;;;;;7.90;6.20;;;;;;;;;;5051189;28;20075;-81
2021/07/04 00:35:22;;;;;;;8.20;6.53;;;;;;;;;;5051008;28;20046;-82
2021/07/04 00:37:51;;;;;;;9.13;6.82;;;;;;;;;;5051490;28;20095;-81
2021/07/04 00:40:19;;;;;;;9.63;7.00;;;;;;;;;;5051602;28;20050;-81
2021/07/04 00:42:46;;;;;;;7.28;6.07;;;;;;;;;;5056546;28;20075;-80
2021/07/04 00:45:14;;;;;;;7.80;6.50;;;;;;;;;;5057720;28;20077;-80
2021/07/04 00:47:41;;;;;;;9.15;6.63;;;;;;;;;;5057707;28;20049;-80
2021/07/04 00:50:09;;;;;;;9.00;6.60;;;;;;;;;;5057745;28;20033;-80
2021/07/04 00:52:37;;;;;;;7.80;6.85;;;;;;;;;;5051619;28;20084;-81
2021/07/04 00:55:06;;;;;;;9.02;5.88;;;;;;;;;;5050660;28;20046;-81
2021/07/04 00:57:33;;;;;;;8.75;6.20;;;;;;;;;;5051279;28;20076;-81
2021/07/04 01:00:00;;;;;;;8.68;5.88;;;;;;;;;;5051019;28;20115;-81
2021/07/04 01:02:27;;;;;;;8.57;6.47;;;;;;;;;;5049486;28;20049;-81
2021/07/04 01:04:55;;;;;;;8.23;5.68;;;;;;;;;;5050539;28;20084;-81
2021/07/04 01:07:22;;;;;;;7.88;5.40;;;;;;;;;;5049363;28;20073;-81
2021/07/04 01:09:50;;;;;;;7.80;5.63;;;;;;;;;;5045578;28;20049;-81
2021/07/04 01:12:17;;;;;;;6.85;4.88;;;;;;;;;;5046127;28;20053;-81
2021/07/04 01:14:44;;;;;;;7.28;5.40;;;;;;;;;;5046901;28;20050;-81
2021/07/04 01:17:10;;;;;;;7.18;4.70;;;;;;;;;;5048879;28;20045;-81
2021/07/04 01:19:38;;;;;;;6.18;4.45;;;;;;;;;;5050809;28;20084;-81
2021/07/04 01:22:05;;;;;;;6.53;4.85;;;;;;;;;;5051043;28;20042;-81
2021/07/04 01:24:33;;;;;;;7.20;5.00;;;;;;;;;;5050577;28;20111;-81
2021/07/04 01:27:00;;;;;;;6.22;4.72;;;;;;;;;;5050074;28;20075;-81
2021/07/04 01:29:26;;;;;;;6.75;4.75;;;;;;;;;;5050137;28;20050;-81
2021/07/04 01:31:53;;;;;;;7.93;5.75;;;;;;;;;;5049358;28;20045;-81
2021/07/04 01:34:20;;;;;;;6.85;4.40;;;;;;;;;;5049877;28;20045;-81
2021/07/04 01:36:47;;;;;;;7.22;5.00;;;;;;;;;;5049843;28;20068;-80
2021/07/04 01:39:14;;;;;;;6.03;4.75;;;;;;;;;;5049407;28;20053;-81
2021/07/04 01:41:42;;;;;;;7.05;5.20;;;;;;;;;;5048595;28;20121;-81
2021/07/04 01:44:08;;;;;;;6.75;4.82;;;;;;;;;;5051787;28;20100;-81
2021/07/04 01:46:38;;;;;;;8.48;5.63;;;;;;;;;;5049452;28;20050;-82
2021/07/04 01:49:05;;;;;;;8.45;6.00;;;;;;;;;;5048954;28;20076;-81
2021/07/04 01:51:32;;;;;;;8.05;5.65;;;;;;;;;;5047740;28;20076;-81
2021/07/04 01:53:59;;;;;;;7.65;5.90;;;;;;;;;;5049712;28;20556;-81
2021/07/04 01:56:25;;;;;;;9.13;6.43;;;;;;;;;;5050265;28;20050;-81
2021/07/04 01:58:53;;;;;;;7.20;5.45;;;;;;;;;;5050521;28;20042;-81
2021/07/04 02:01:20;;;;;;;7.07;5.97;;;;;;;;;;5048800;28;20115;-81
2021/07/04 02:03:47;;;;;;;7.22;5.22;;;;;;;;;;5049326;28;20049;-81
2021/07/04 02:06:14;;;;;;;6.80;5.28;;;;;;;;;;5049490;28;20443;-81
2021/07/04 02:08:40;;;;;;;7.55;5.82;;;;;;;;;;5049012;28;20042;-81
2021/07/04 02:11:08;;;;;;;7.50;5.78;;;;;;;;;;5048360;28;20068;-81
2021/07/04 02:13:35;;;;;;;7.88;5.15;;;;;;;;;;5049049;28;20063;-81
2021/07/04 02:16:03;;;;;;;6.88;5.68;;;;;;;;;;5049367;28;20057;-81
2021/07/04 02:18:31;;;;;;;7.10;6.05;;;;;;;;;;5064619;22;20379;-83
2021/07/04 02:20:58;;;;;;;6.55;5.32;;;;;;;;;;5043171;28;20050;-82
2021/07/04 02:23:27;;;;;;;6.60;5.10;;;;;;;;;;5043130;28;20131;-83
2021/07/04 02:25:55;;;;;;;6.93;5.07;;;;;;;;;;5043970;28;20045;-79
2021/07/04 02:28:24;;;;;;;6.82;5.57;;;;;;;;;;5044186;28;20045;-79
2021/07/04 02:30:52;;;;;;;5.97;5.03;;;;;;;;;;5043727;28;20076;-80
2021/07/04 02:33:21;;;;;;;8.32;6.07;;;;;;;;;;5043633;28;20111;-81
2021/07/04 02:35:49;;;;;;;7.20;5.75;;;;;;;;;;5036050;28;20068;-79
2021/07/04 02:38:17;;;;;;;7.65;5.70;;;;;;;;;;5036655;28;20049;-81
2021/07/04 02:40:44;;;;;;;7.25;5.72;;;;;;;;;;5036349;28;20053;-81
2021/07/04 02:43:13;;;;;;;7.53;6.13;;;;;;;;;;5038140;28;20050;-78
2021/07/04 02:45:40;;;;;;;7.38;5.70;;;;;;;;;;5037966;28;20096;-81
2021/07/04 02:48:09;;;;;;;7.28;5.63;;;;;;;;;;5036604;28;20510;-79
2021/07/04 02:50:38;;;;;;;7.35;5.47;;;;;;;;;;5034366;28;20566;-79
2021/07/04 02:53:05;;;;;;;8.15;5.40;;;;;;;;;;5039721;28;20118;-79
2021/07/04 02:55:32;;;;;;;7.10;5.55;;;;;;;;;;5039528;28;20042;-79
2021/07/04 02:57:59;;;;;;;6.18;5.07;;;;;;;;;;5038517;28;20164;-79
2021/07/04 03:00:27;;;;;;;7.40;5.78;;;;;;;;;;5038451;28;20037;-79
2021/07/04 03:02:55;;;;;;;7.40;5.28;;;;;;;;;;5041630;28;20045;-79
2021/07/04 03:05:22;;;;;;;6.78;5.00;;;;;;;;;;5043849;28;20091;-82
2021/07/04 03:07:50;;;;;;;7.10;5.78;;;;;;;;;;5039449;28;20103;-80
2021/07/04 03:10:19;;;;;;;7.07;5.28;;;;;;;;;;5039028;28;20072;-80
2021/07/04 03:12:46;;;;;;;7.70;6.00;;;;;;;;;;5020868;28;20096;-80
2021/07/04 03:15:14;;;;;;;6.55;5.03;;;;;;;;;;5018767;28;20042;-80
2021/07/04 03:17:41;;;;;;;6.97;5.60;;;;;;;;;;5018715;28;20104;-80
2021/07/04 03:20:10;;;;;;;7.53;5.82;;;;;;;;;;5018510;28;20557;-82
2021/07/04 03:22:37;;;;;;;7.53;5.70;;;;;;;;;;5018155;28;20096;-80
2021/07/04 03:25:07;;;;;;;6.68;5.38;;;;;;;;;;5019091;28;20046;-80
2021/07/04 03:27:33;;;;;;;7.90;6.27;;;;;;;;;;5018662;28;20045;-80
2021/07/04 03:30:00;;;;;;;7.65;6.03;;;;;;;;;;5019707;28;20369;-80
2021/07/04 03:32:27;;;;;;;9.07;5.70;;;;;;;;;;5018379;28;20538;-79
2021/07/04 03:34:54;;;;;;;7.15;5.80;;;;;;;;;;5019187;28;20050;-79
2021/07/04 03:37:21;;;;;;;7.75;6.20;;;;;;;;;;5019180;28;20050;-80
2021/07/04 03:39:47;;;;;;;7.03;5.85;;;;;;;;;;5018943;28;20104;-79
2021/07/04 03:42:15;;;;;;;8.20;6.00;;;;;;;;;;5017568;28;20057;-80
2021/07/04 03:44:42;;;;;;;8.48;6.57;;;;;;;;;;5018504;28;20050;-81
2021/07/04 03:47:09;;;;;;;7.63;6.35;;;;;;;;;;5026196;28;20046;-81
2021/07/04 03:49:36;;;;;;;7.40;5.43;;;;;;;;;;5026406;28;20046;-81
2021/07/04 03:52:03;;;;;;;8.52;6.25;;;;;;;;;;5024082;28;20411;-82
2021/07/04 03:54:30;;;;;;;7.03;5.57;;;;;;;;;;5022700;28;20100;-81
2021/07/04 03:56:56;;;;;;;8.38;7.20;;;;;;;;;;5017800;28;20077;-80
2021/07/04 03:59:24;;;;;;;8.20;6.28;;;;;;;;;;5018710;28;20050;-82
2021/07/04 04:01:51;;;;;;;7.22;5.65;;;;;;;;;;5039753;28;20451;-80
2021/07/04 04:04:18;;;;;;;7.22;6.05;;;;;;;;;;5036741;28;20095;-81
2021/07/04 04:06:45;;;;;;;7.80;6.38;;;;;;;;;;5040707;28;20076;-81
2021/07/04 04:09:11;;;;;;;8.23;6.20;;;;;;;;;;5040505;28;20049;-81
2021/07/04 04:11:38;;;;;;;7.40;6.07;;;;;;;;;;5028327;28;20557;-80
2021/07/04 04:14:05;;;;;;;6.90;5.55;;;;;;;;;;5017938;28;20103;-81
2021/07/04 04:16:33;;;;;;;8.20;6.40;;;;;;;;;;5018744;28;20135;-81
2021/07/04 04:18:59;;;;;;;8.70;6.10;;;;;;;;;;5018328;28;20054;-81
2021/07/04 04:21:26;;;;;;;6.80;5.90;;;;;;;;;;5017759;28;20093;-81
2021/07/04 04:23:53;;;;;;;7.75;5.65;;;;;;;;;;5018033;28;20045;-80
2021/07/04 04:26:19;;;;;;;7.40;6.05;;;;;;;;;;5019004;28;20046;-81
2021/07/04 04:28:46;;;;;;;9.75;6.63;;;;;;;;;;5019228;28;20070;-81
2021/07/04 04:31:13;;;;;;;9.75;6.07;;;;;;;;;;5018475;28;20124;-81
2021/07/04 04:33:41;;;;;;;7.22;5.70;;;;;;;;;;5018780;28;20487;-81
2021/07/04 04:36:09;;;;;;;8.07;6.47;;;;;;;;;;5018457;28;20049;-80
2021/07/04 04:38:35;;;;;;;8.80;6.43;;;;;;;;;;5019477;28;20080;-81
2021/07/04 04:41:02;;;;;;;7.72;6.55;;;;;;;;;;5017949;28;20081;-80
2021/07/04 04:43:29;;;;;;;7.38;6.10;;;;;;;;;;5019224;28;20096;-81
2021/07/04 04:45:56;;;;;;;8.57;6.60;;;;;;;;;;5018984;28;20049;-81
2021/07/04 04:48:22;;;;;;;9.82;6.70;;;;;;;;;;5018504;28;20053;-81
2021/07/04 04:50:50;;;;;;;7.05;6.07;;;;;;;;;;5018005;28;20057;-81
2021/07/04 04:53:17;;;;;;;7.45;6.15;;;;;;;;;;5019081;28;20045;-81
2021/07/04 04:55:44;;;;;;;7.90;6.43;;;;;;;;;;5018679;28;20054;-80
2021/07/04 04:58:11;;;;;;;6.53;5.60;;;;;;;;;;5018280;28;20050;-81
2021/07/04 05:00:37;;;;;;;8.55;6.15;;;;;;;;;;5025692;28;20480;-80
2021/07/04 05:03:06;;;;;;;7.68;6.28;;;;;;;;;;5038144;28;20045;-80
2021/07/04 05:05:36;;;;;;;7.15;6.22;;;;;;;;;;5038494;28;20049;-81
2021/07/04 05:08:04;;;;;;;8.60;6.60;;;;;;;;;;5038176;28;20053;-81
2021/07/04 05:10:31;;;;;;;7.63;6.07;;;;;;;;;;5037651;28;20099;-81
2021/07/04 05:12:58;;;;;;;8.60;6.68;;;;;;;;;;5017851;28;20054;-81
2021/07/04 05:15:25;;;;;;;7.60;6.38;;;;;;;;;;5017995;28;20119;-81
2021/07/04 05:17:52;;;;;;;7.85;6.65;;;;;;;;;;5017924;28;20046;-80
2021/07/04 05:20:19;;;;;;;7.22;6.05;;;;;;;;;;5018408;28;20573;-80
2021/07/04 05:22:46;;;;;;;9.20;6.80;;;;;;;;;;5016949;28;20073;-80
2021/07/04 05:25:15;;;;;;;7.45;6.50;;;;;;;;;;5017278;28;20053;-81
2021/07/04 05:27:42;;;;;;;8.63;6.60;;;;;;;;;;5017717;28;20470;-80
2021/07/04 05:30:10;;;;;;;7.75;6.22;;;;;;;;;;5022097;28;20100;-81
2021/07/04 05:32:37;;;;;;;8.45;6.60;;;;;;;;;;5025599;28;20050;-81
2021/07/04 05:35:04;;;;;;;9.65;7.07;;;;;;;;;;5026516;28;20112;-80
2021/07/04 05:37:31;;;;;;;8.63;6.72;;;;;;;;;;5027939;28;20050;-79
2021/07/04 05:39:59;;;;;;;8.57;6.78;;;;;;;;;;5027206;28;20132;-81
2021/07/04 05:42:27;;;;;;;6.90;5.93;;;;;;;;;;5025440;28;20050;-80
2021/07/04 05:44:54;;;;;;;7.72;6.18;;;;;;;;;;5026159;28;20084;-80
2021/07/04 05:47:20;;;;;;;7.65;5.50;;;;;;;;;;5025551;28;20050;-81
2021/07/04 05:49:47;;;;;;;7.55;6.63;;;;;;;;;;5025421;28;20053;-81
2021/07/04 05:52:14;;;;;;;8.20;6.40;;;;;;;;;;5024738;28;20054;-81
2021/07/04 05:54:41;;;;;;;8.02;6.75;;;;;;;;;;5026159;28;20511;-81
2021/07/04 05:57:08;;;;;;;8.02;6.53;;;;;;;;;;5025170;28;20403;-81
2021/07/04 05:59:36;;;;;;;7.80;5.72;;;;;;;;;;5024876;28;20050;-81
2021/07/04 06:02:03;;;;;;;6.85;5.40;;;;;;;;;;5044640;28;20072;-81
2021/07/04 06:04:30;;;;;;;6.93;5.07;;;;;;;;;;5046005;28;20053;-81
2021/07/04 06:06:57;;;;;;;8.10;5.55;;;;;;;;;;5045351;28;20453;-81
2021/07/04 06:09:23;;;;;;;7.70;5.72;;;;;;;;;;5046256;28;20065;-81
2021/07/04 06:11:51;;;;;;;7.53;5.53;;;;;;;;;;5034788;28;20046;-80
2021/07/04 06:14:18;;;;;;;6.30;5.35;;;;;;;;;;5026924;28;20065;-81
2021/07/04 06:16:46;;;;;;;8.48;5.90;;;;;;;;;;5027169;28;20072;-81
2021/07/04 06:19:13;;;;;;;7.05;5.45;;;;;;;;;;5029289;28;20112;-80
2021/07/04 06:21:40;;;;;;;7.95;5.60;;;;;;;;;;5031017;28;20076;-81
2021/07/04 06:24:07;;;;;;;5.75;4.65;;;;;;;;;;5031947;28;20049;-81
2021/07/04 06:26:33;;;;;;;6.53;5.00;;;;;;;;;;5030161;28;20100;-80
2021/07/04 06:29:00;;;;;;;6.22;4.65;;;;;;;;;;5029608;28;20077;-79
2021/07/04 06:31:28;;;;;;;5.93;4.50;;;;;;;;;;5031088;28;20049;-82
2021/07/04 06:33:57;;;;;;;6.95;5.00;;;;;;;;;;5029761;28;20470;-80
2021/07/04 06:36:24;;;;;;;6.57;5.13;;;;;;;;;;5015261;28;20084;-81
2021/07/04 06:38:52;;;;;;;6.38;4.93;;;;;;;;;;5015061;28;20050;-80
2021/07/04 06:41:18;;;;;;;6.55;5.40;;;;;;;;;;5015328;28;20049;-81
2021/07/04 06:43:45;;;;;;;6.43;5.55;;;;;;;;;;5016249;28;20049;-80
2021/07/04 06:46:12;;;;;;;7.30;5.63;;;;;;;;;;5016769;28;20050;-81
2021/07/04 06:48:39;;;;;;;6.97;5.30;;;;;;;;;;5016543;28;20100;-82
2021/07/04 06:51:07;;;;;;;7.43;5.78;;;;;;;;;;5017915;28;20112;-81
2021/07/04 06:53:34;;;;;;;7.32;6.03;;;;;;;;;;5015509;28;20054;-79
2021/07/04 06:56:02;;;;;;;6.82;5.18;;;;;;;;;;5015267;28;20108;-79
2021/07/04 06:58:28;;;;;;;8.32;5.60;;;;;;;;;;5016747;28;20046;-80
2021/07/04 07:00:55;;;;;;;7.55;5.45;;;;;;;;;;5027183;28;20466;-80
2021/07/04 07:03:22;;;;;;;7.82;5.60;;;;;;;;;;5036851;28;20049;-80
2021/07/04 07:05:49;;;;;;;7.18;5.60;;;;;;;;;;5035938;28;20461;-81
2021/07/04 07:08:17;;;;;;;6.97;5.57;;;;;;;;;;5035446;28;20046;-80
2021/07/04 07:10:44;;;;;;;7.78;5.57;;;;;;;;;;5034046;28;20057;-80
2021/07/04 07:13:10;;;;;;;7.20;5.82;;;;;;;;;;5016259;28;20193;-80
2021/07/04 07:15:37;;;;;;;9.52;7.97;;;;;;;;;;5015961;28;20050;-80
2021/07/04 07:18:04;;;;;;;9.80;6.65;;;;;;;;;;5015794;28;20046;-80
2021/07/04 07:20:31;;;;;;;8.63;6.43;;;;;;;;;;5015265;28;20042;-80
2021/07/04 07:22:58;;;;;;;8.63;6.88;;;;;;;;;;5014861;28;20558;-80
2021/07/04 07:25:26;;;;;;;7.07;5.90;;;;;;;;;;5015535;28;20049;-80
2021/07/04 07:27:53;;;;;;;9.32;5.95;;;;;;;;;;5015958;28;20046;-80
2021/07/04 07:30:21;;;;;;;9.77;8.65;;;;;;;;;;5015975;28;20112;-80
2021/07/04 07:32:48;;;;;;;12.55;10.27;;;;;;;;;;5014829;28;20052;-80
2021/07/04 07:35:15;;;;;;;8.13;6.80;;;;;;;;;;5015531;28;20053;-80
2021/07/04 07:37:42;;;;;;;7.10;5.78;;;;;;;;;;5015353;28;20188;-82
2021/07/04 07:40:09;;;;;;;7.53;5.53;;;;;;;;;;5019140;28;20475;-81
2021/07/04 07:42:37;;;;;;;7.78;5.53;;;;;;;;;;5019293;28;20132;-80
2021/07/04 07:45:06;;;;;;;7.00;5.53;;;;;;;;;;5020480;28;20046;-81
2021/07/04 07:47:33;;;;;;;9.40;7.65;;;;;;;;;;5019281;28;20046;-80
2021/07/04 07:50:01;;;;;;;7.28;5.88;;;;;;;;;;5019095;28;20108;-81
2021/07/04 07:52:28;;;;;;;5.65;4.40;;;;;;;;;;5018514;28;20050;-82
2021/07/04 07:54:54;;;;;;;6.97;4.60;;;;;;;;;;5018884;28;20462;-80
2021/07/04 07:57:21;;;;;;;6.38;5.00;;;;;;;;;;5018500;28;20096;-80
2021/07/04 07:59:52;;;;;;;7.28;5.43;;;;;;;;;;5019423;28;20046;-79
2021/07/04 08:02:19;;;;;;;7.55;5.45;;;;;;;;;;5037822;28;20049;-80
2021/07/04 08:04:46;;;;;;;6.93;5.80;;;;;;;;;;5038858;28;20184;-80
2021/07/04 08:07:12;;;;;;;7.97;5.78;;;;;;;;;;5039399;28;20124;-80
2021/07/04 08:09:39;;;;;;;7.03;4.97;;;;;;;;;;5038367;28;20041;-79
2021/07/04 08:12:07;;;;;;;6.18;5.28;;;;;;;;;;5037832;28;20049;-81
2021/07/04 08:14:33;;;;;;;7.82;6.28;;;;;;;;;;5038911;28;20107;-81
2021/07/04 08:17:02;;;;;;;6.18;4.78;;;;;;;;;;5038551;28;20476;-81
2021/07/04 08:19:31;;;;;;;6.85;5.75;;;;;;;;;;5068044;22;20049;-82
2021/07/04 08:22:21;;;;;;;7.43;5.20;;;;;;;;;;5049649;28;20065;-82
2021/07/04 08:24:48;;;;;;;7.30;5.73;;;;;;;;;;5050751;28;20287;-82
2021/07/04 08:27:14;;;;;;;6.78;5.03;;;;;;;;;;5051190;28;20255;-82
2021/07/04 08:29:41;;;;;;;6.97;5.43;;;;;;;;;;5050066;28;20049;-82
2021/07/04 08:32:10;;;;;;;6.32;5.00;;;;;;;;;;5049508;28;20119;-82
2021/07/04 08:34:37;;;;;;;6.35;4.70;;;;;;;;;;5049537;28;20050;-82
2021/07/04 08:37:04;;;;;;;5.55;4.47;;;;;;;;;;5049566;28;20068;-82
2021/07/04 08:39:32;;;;;;;6.45;5.13;;;;;;;;;;5048185;28;20053;-82
2021/07/04 08:41:58;;;;;;;6.63;4.20;;;;;;;;;;5048058;28;20079;-82
2021/07/04 08:44:25;;;;;;;6.18;4.40;;;;;;;;;;5048997;28;20474;-82
2021/07/04 08:46:52;;;;;;;10.60;9.50;;;;;;;;;;5049874;28;20053;-82
2021/07/04 08:49:20;;;;;;;6.80;5.90;;;;;;;;;;5049217;28;20041;-81
2021/07/04 08:52:47;;;;;;;5.85;5.05;;;;;;;;;;5049064;28;20057;-81
2021/07/04 08:55:16;;;;;;;8.20;6.57;;;;;;;;;;5028581;28;20053;-82
2021/07/04 08:57:43;;;;;;;6.65;4.88;;;;;;;;;;5049149;28;20053;-82
2021/07/04 09:00:16;;;;;;;6.25;3.90;;;;;;;;;;5049094;28;20061;-82
2021/07/04 09:02:43;;;;;;;7.47;5.97;;;;;;;;;;5049781;28;20049;-82
2021/07/04 09:05:13;;;;;;;5.55;4.30;;;;;;;;;;5048400;28;20045;-82
2021/07/04 09:07:42;;;;;;;9.32;6.07;;;;;;;;;;5047561;28;20057;-82
2021/07/04 09:10:11;;;;;;;4.80;3.22;;;;;;;;;;5046470;28;20053;-81
2021/07/04 09:12:40;;;;;;;4.85;3.92;;;;;;;;;;5046446;28;20049;-82
2021/07/04 09:15:13;;;;;;;5.90;5.30;;;;;;;;;;5050031;28;20064;-82
2021/07/04 09:17:44;;;;;;;5.57;3.92;;;;;;;;;;5050328;28;20049;-82
2021/07/04 09:20:15;;;;;;;5.57;3.20;;;;;;;;;;5051162;28;20045;-82
2021/07/04 09:22:45;;;;;;;4.78;3.40;;;;;;;;;;5049734;28;20077;-82
2021/07/04 09:25:15;;;;;;;3.63;2.35;;;;;;;;;;5050198;28;20498;-82
2021/07/04 09:27:43;;;;;;;10.80;9.70;;;;;;;;;;5050816;28;20053;-81
2021/07/04 09:30:13;;;;;;;7.35;5.45;;;;;;;;;;5050769;28;20045;-82
2021/07/04 09:32:46;;;;;;;5.53;3.40;;;;;;;;;;5055590;28;20045;-81
2021/07/04 09:35:16;;;;;;;3.85;2.35;;;;;;;;;;5055801;28;20053;-82
2021/07/04 09:37:45;;;;;;;3.25;1.92;;;;;;;;;;5055224;28;20053;-81
2021/07/04 09:40:15;;;;;;;3.35;2.40;;;;;;;;;;5055876;28;20055;-81
2021/07/04 09:43:03;;;;;;;;;;;;;;;;;;5055575;28;20119;-82
2021/07/04 09:45:46;;;;;;;4.40;2.70;;;;;;;;;;5054736;28;19905;-83
2021/07/04 09:48:14;;;;;;;4.82;3.28;;;;;;;;;;5043519;28;20060;-84
2021/07/04 09:50:44;;;;;;;2.97;1.80;;;;;;;;;;5042057;28;20068;-83
2021/07/04 09:53:11;;;;;;;4.10;2.00;;;;;;;;;;5043230;28;20057;-83
2021/07/04 09:55:38;;;;;;;3.33;1.95;;;;;;;;;;5044195;28;20498;-82
2021/07/04 09:58:06;;;;;;;3.30;2.00;;;;;;;;;;5041273;28;20107;-82
2021/07/04 10:00:34;;;;;;;3.53;2.03;;;;;;;;;;5048539;28;20041;-80
2021/07/04 10:03:07;;;;;;;3.05;2.22;;;;;;;;;;5049397;28;20072;-83
2021/07/04 10:05:34;;;;;;;3.85;1.92;;;;;;;;;;5046552;28;20113;-84
2021/07/04 10:08:17;;;;;;;3.75;2.03;;;;;;;;;;5047314;28;20050;-83
2021/07/04 10:10:44;;;;;;;4.38;2.17;;;;;;;;;;5046141;28;20060;-83
2021/07/04 10:13:11;;;;;;;4.45;2.20;;;;;;;;;;5046445;28;20054;-82
2021/07/04 10:15:40;;;;;;;3.63;2.17;;;;;;;;;;5047504;28;20057;-83
2021/07/04 10:18:08;;;;;;;6.03;3.83;;;;;;;;;;5046487;28;20084;-82
2021/07/04 10:20:35;;;;;;;4.82;3.10;;;;;;;;;;5044738;28;20053;-83
2021/07/04 10:23:03;;;;;;;5.13;3.55;;;;;;;;;;5045527;28;20050;-82
2021/07/04 10:25:30;;;;;;;6.30;4.65;;;;;;;;;;5048269;28;20075;-81
2021/07/04 10:27:57;;;;;;;5.00;4.07;;;;;;;;;;5049653;28;20080;-81
2021/07/04 10:30:24;;;;;;;5.25;3.50;;;;;;;;;;5048844;28;20077;-81
2021/07/04 10:33:14;;;;;;;4.25;2.75;;;;;;;;;;5046082;28;20049;-83
2021/07/04 10:36:00;;;;;;;5.97;4.20;;;;;;;;;;5045667;28;20482;-83
2021/07/04 10:38:42;;;;;;;4.53;3.00;;;;;;;;;;5046106;28;20410;-82
2021/07/04 10:41:11;;;;;;;4.18;2.83;;;;;;;;;;5048945;28;20041;-82
2021/07/04 10:43:58;;;;;;;4.40;2.55;;;;;;;;;;5049942;28;20076;-81
2021/07/04 10:47:19;;;;;;;4.72;2.42;;;;;;;;;;5050236;28;20331;-81
2021/07/04 10:49:51;;;;;;;3.83;2.42;;;;;;;;;;5050964;28;20083;-81
2021/07/04 10:52:34;;;;;;;3.60;2.30;;;;;;;;;;5050558;28;20046;-81
2021/07/04 10:55:04;;;;;;;4.05;2.55;;;;;;;;;;5047013;28;20053;-81
2021/07/04 10:57:34;;;;;;;3.65;2.47;;;;;;;;;;5049731;28;20041;-82
2021/07/04 11:00:18;;;;;;;3.72;2.60;;;;;;;;;;5049694;28;20049;-82
2021/07/04 11:02:46;;;;;;;4.22;2.33;;;;;;;;;;5049085;28;20049;-81
2021/07/04 11:05:15;;;;;;;4.15;2.30;;;;;;;;;;5042186;28;20057;-83
2021/07/04 11:08:11;;;;;;;5.13;2.60;;;;;;;;;;5039377;28;20564;-82
2021/07/04 11:11:00;;;;;;;3.92;2.60;;;;;;;;;;5015109;28;20049;-82
2021/07/04 11:13:48;;;;;;;4.38;3.08;;;;;;;;;;5044032;28;20163;-81
2021/07/04 11:16:24;;;;;;;4.38;2.85;;;;;;;;;;5048880;28;20052;-81
2021/07/04 11:18:54;;;;;;;4.18;2.60;;;;;;;;;;5052271;28;20057;-82
2021/07/04 11:21:24;;;;;;;4.07;2.45;;;;;;;;;;5050386;28;20053;-81
2021/07/04 11:24:17;;;;;;;3.78;2.58;;;;;;;;;;5049485;28;20053;-82
2021/07/04 11:27:22;;;;;;;3.42;2.47;;;;;;;;;;5051817;28;20053;-81
2021/07/04 11:30:28;;;;;;;4.72;2.33;;;;;;;;;;5051741;28;20103;-84
2021/07/04 11:33:25;;;;;;;3.45;2.40;;;;;;;;;;5054947;28;20057;-81
2021/07/04 11:35:53;;;;;;;4.00;2.80;;;;;;;;;;5054213;28;20068;-81
2021/07/04 11:38:22;;;;;;;6.72;4.53;;;;;;;;;;5054475;28;20050;-82
2021/07/04 11:40:50;;;;;;;7.28;5.95;;;;;;;;;;5056482;28;20072;-81
2021/07/04 11:43:21;;;;;;;4.57;3.20;;;;;;;;;;5053980;28;20057;-82
2021/07/04 11:45:50;;;;;;;4.97;3.30;;;;;;;;;;5054561;28;20033;-83
2021/07/04 11:48:17;;;;;;;4.33;2.90;;;;;;;;;;5054456;28;20079;-82
2021/07/04 11:50:49;;;;;;;4.10;2.55;;;;;;;;;;5054388;28;20576;-81
2021/07/04 11:53:16;;;;;;;4.93;3.42;;;;;;;;;;5054403;28;20080;-82
2021/07/04 11:55:57;;;;;;;5.00;3.17;;;;;;;;;;5056056;28;20076;-80
2021/07/04 11:58:27;;;;;;;5.05;3.13;;;;;;;;;;5057496;28;20049;-80
2021/07/04 12:00:54;;;;;;;;;;;;;;;;;;5057286;28;20049;-80
2021/07/04 12:03:22;;;;;;;4.75;3.45;;;;;;;;;;5056719;28;19940;-81
2021/07/04 12:05:49;;;;;;;4.15;2.75;;;;;;;;;;5056838;28;20042;-81
2021/07/04 12:08:16;;;;;;;4.05;2.60;;;;;;;;;;5056511;28;20063;-81
2021/07/04 12:10:53;;;;;;;5.20;2.70;;;;;;;;;;5055954;28;20041;-82
2021/07/04 12:13:20;;;;;;;4.35;2.55;;;;;;;;;;5050067;28;20063;-81
2021/07/04 12:16:37;;;;;;;4.43;3.00;;;;;;;;;;5048835;28;20135;-81
2021/07/04 12:19:04;;;;;;;4.55;3.00;;;;;;;;;;5032367;28;20060;-84
2021/07/04 12:21:37;;;;;;;5.32;3.35;;;;;;;;;;5044791;28;20081;-82
2021/07/04 12:24:04;;;;;;;4.05;3.20;;;;;;;;;;5044753;28;20046;-83
2021/07/04 12:26:31;;;;;;;4.32;3.20;;;;;;;;;;5044730;28;20049;-80
2021/07/04 12:29:03;;;;;;;5.32;3.15;;;;;;;;;;5044395;28;20332;-80
2021/07/04 12:31:33;;;;;;;4.50;2.88;;;;;;;;;;5046547;28;20058;-80
2021/07/04 12:34:03;;;;;;;4.15;2.80;;;;;;;;;;5054452;28;20102;-81
2021/07/04 12:36:33;;;;;;;4.75;3.03;;;;;;;;;;5057407;28;20034;-80
2021/07/04 12:39:09;;;;;;;5.32;3.78;;;;;;;;;;5058123;28;20033;-79
2021/07/04 12:41:35;;;;;;;6.10;4.60;;;;;;;;;;5056079;28;20079;-83
2021/07/04 12:44:13;;;;;;;5.22;3.10;;;;;;;;;;5055620;28;20045;-82
2021/07/04 12:46:42;;;;;;;4.82;4.10;;;;;;;;;;5053745;28;20033;-82
2021/07/04 12:49:14;;;;;;;5.50;3.90;;;;;;;;;;5053197;28;20053;-81
2021/07/04 12:51:43;;;;;;;5.18;3.50;;;;;;;;;;5054930;28;20050;-80
2021/07/04 12:54:21;;;;;;;4.40;2.88;;;;;;;;;;5046986;28;20124;-81
2021/07/04 12:56:50;;;;;;;4.88;3.20;;;;;;;;;;5045176;28;20075;-82
2021/07/04 12:59:26;;;;;;;5.40;3.88;;;;;;;;;;5044913;28;20045;-81
2021/07/04 13:01:56;;;;;;;6.10;4.80;;;;;;;;;;5042236;28;20053;-81
2021/07/04 13:04:24;;;;;;;5.20;2.97;;;;;;;;;;5045104;28;20049;-81
2021/07/04 13:07:01;;;;;;;4.72;3.30;;;;;;;;;;5041705;28;20100;-83
2021/07/04 13:09:45;;;;;;;4.05;2.97;;;;;;;;;;5039725;28;20045;-83
2021/07/04 13:12:16;;;;;;;4.47;3.10;;;;;;;;;;5038655;28;20522;-83
2021/07/04 13:14:45;;;;;;;4.07;2.63;;;;;;;;;;5039319;28;20053;-81
2021/07/04 13:17:19;;;;;;;5.05;3.70;;;;;;;;;;5046567;28;20045;-82
2021/07/04 13:19:47;;;;;;;4.88;3.00;;;;;;;;;;5046213;28;20049;-81
2021/07/04 13:22:21;;;;;;;6.15;3.00;;;;;;;;;;5044138;28;20046;-81
2021/07/04 13:24:53;;;;;;;3.90;2.70;;;;;;;;;;5041914;28;20580;-83
2021/07/04 13:27:25;;;;;;;4.18;3.00;;;;;;;;;;5041449;28;20060;-81
2021/07/04 13:29:53;;;;;;;5.05;3.38;;;;;;;;;;5043288;28;20063;-82
2021/07/04 13:32:26;;;;;;;5.80;4.82;;;;;;;;;;5038743;28;20060;-81
2021/07/04 13:35:13;;;;;;;5.03;3.90;;;;;;;;;;5036852;28;20053;-81
2021/07/04 13:37:52;;;;;;;3.88;2.80;;;;;;;;;;5037365;28;20049;-82
2021/07/04 13:40:19;;;;;;;6.00;4.68;;;;;;;;;;5039903;28;20128;-83
2021/07/04 13:42:48;;;;;;;6.07;4.40;;;;;;;;;;5037252;28;20049;-80
2021/07/04 13:45:30;;;;;;;5.30;3.70;;;;;;;;;;5036992;28;20049;-82
2021/07/04 13:48:00;;;;;;;4.70;3.20;;;;;;;;;;5039322;28;20050;-85
2021/07/04 13:50:28;;;;;;;4.97;3.15;;;;;;;;;;5037667;28;20049;-82
2021/07/04 13:52:55;;;;;;;4.05;2.92;;;;;;;;;;5040513;28;20045;-82
2021/07/04 13:55:22;;;;;;;3.70;2.83;;;;;;;;;;5035533;28;20453;-81
2021/07/04 13:57:49;;;;;;;4.65;3.10;;;;;;;;;;5038476;28;20076;-82
2021/07/04 14:00:18;;;;;;;5.03;3.13;;;;;;;;;;5038783;28;20494;-81
2021/07/04 14:02:46;;;;;;;8.38;5.38;;;;;;;;;;5040247;28;20049;-82
2021/07/04 14:05:18;;;;;;;9.45;7.28;;;;;;;;;;5039676;28;20107;-81
2021/07/04 14:07:45;;;;;;;8.20;5.88;;;;;;;;;;5038080;28;20168;-84
2021/07/04 14:10:12;;;;;;;6.38;4.85;;;;;;;;;;5037889;28;20127;-81
2021/07/04 14:12:39;;;;;;;10.73;8.23;;;;;;;;;;5035988;28;20506;-83
2021/07/04 14:15:07;;;;;;;6.82;5.82;;;;;;;;;;5037224;28;20099;-84
2021/07/04 14:17:35;;;;;;;7.78;6.38;;;;;;;;;;5037261;28;20053;-82
2021/07/04 14:20:01;;;;;;;7.68;5.45;;;;;;;;;;5058905;22;20057;-80
2021/07/04 14:22:30;;;;;;;5.75;4.00;;;;;;;;;;5037469;28;20099;-79
2021/07/04 14:24:58;;;;;;;5.60;4.20;;;;;;;;;;5037506;28;20069;-80
2021/07/04 14:27:25;;;;;;;4.53;3.22;;;;;;;;;;5038107;28;20049;-79
2021/07/04 14:29:52;;;;;;;4.38;2.63;;;;;;;;;;5036611;28;20054;-79
2021/07/04 14:32:19;;;;;;;6.40;5.50;;;;;;;;;;5037324;28;20088;-79
2021/07/04 14:34:47;;;;;;;10.25;8.50;;;;;;;;;;5037131;28;20089;-80
2021/07/04 14:37:14;;;;;;;5.53;4.10;;;;;;;;;;5037516;28;20526;-79
2021/07/04 14:39:42;;;;;;;9.65;8.63;;;;;;;;;;5037231;28;20096;-80
2021/07/04 14:42:10;;;;;;;13.02;11.73;;;;;;;;;;5036751;28;20565;-80
2021/07/04 14:44:37;;;;;;;6.85;5.30;;;;;;;;;;5036752;28;20050;-80
2021/07/04 14:47:04;;;;;;;5.75;4.30;;;;;;;;;;5037824;28;20283;-80
2021/07/04 14:49:35;;;;;;;4.70;3.40;;;;;;;;;;5043050;28;20387;-79
2021/07/04 14:52:04;;;;;;;5.57;4.63;;;;;;;;;;5043077;28;20107;-79
2021/07/04 14:54:33;;;;;;;7.57;5.25;;;;;;;;;;5043800;28;20064;-78
2021/07/04 14:57:07;;;;;;;7.55;5.70;;;;;;;;;;5046727;28;20045;-79